sensor_id;sensor_type;location;lat;lon;timestamp;P1;durP1;ratioP1;P2;durP2;ratioP2
23310;SDS011;11828;51.508;18.118;2023-02-01T00:00:46;195.32;;;71.03;;
23310;SDS011;11828;51.508;18.118;2023-02-01T00:03:24;196.60;;;70.75;;
23310;SDS011;11828;51.508;18.118;2023-02-01T00:05:58;202.68;;;74.55;;
23310;SDS011;11828;51.508;18.118;2023-02-01T00:08:25;203.50;;;72.57;;
23310;SDS011;11828;51.508;18.118;2023-02-01T00:11:05;201.27;;;76.40;;
23310;SDS011;11828;51.508;18.118;2023-02-01T00:13:37;196.45;;;72.38;;
23310;SDS011;11828;51.508;18.118;2023-02-01T00:16:10;204.40;;;74.45;;
23310;SDS011;11828;51.508;18.118;2023-02-01T00:18:39;199.90;;;73.93;;
23310;SDS011;11828;51.508;18.118;2023-02-01T00:21:05;200.43;;;73.15;;
23310;SDS011;11828;51.508;18.118;2023-02-01T00:23:32;199.68;;;73.85;;
23310;SDS011;11828;51.508;18.118;2023-02-01T00:26:03;208.93;;;83.10;;
23310;SDS011;11828;51.508;18.118;2023-02-01T00:28:31;205.02;;;74.40;;
23310;SDS011;11828;51.508;18.118;2023-02-01T00:31:01;196.00;;;75.10;;
23310;SDS011;11828;51.508;18.118;2023-02-01T00:33:29;195.30;;;72.18;;
23310;SDS011;11828;51.508;18.118;2023-02-01T00:35:57;202.70;;;83.68;;
23310;SDS011;11828;51.508;18.118;2023-02-01T00:38:29;200.90;;;73.72;;
23310;SDS011;11828;51.508;18.118;2023-02-01T00:41:02;221.05;;;76.05;;
23310;SDS011;11828;51.508;18.118;2023-02-01T00:43:35;199.32;;;72.80;;
23310;SDS011;11828;51.508;18.118;2023-02-01T00:46:01;210.55;;;93.28;;
23310;SDS011;11828;51.508;18.118;2023-02-01T00:48:28;196.27;;;74.82;;
23310;SDS011;11828;51.508;18.118;2023-02-01T00:50:54;202.55;;;74.43;;
23310;SDS011;11828;51.508;18.118;2023-02-01T00:53:32;197.57;;;71.63;;
23310;SDS011;11828;51.508;18.118;2023-02-01T00:55:59;214.20;;;91.25;;
23310;SDS011;11828;51.508;18.118;2023-02-01T00:58:26;193.40;;;71.05;;
23310;SDS011;11828;51.508;18.118;2023-02-01T01:01:03;197.52;;;72.45;;
23310;SDS011;11828;51.508;18.118;2023-02-01T01:03:39;196.02;;;71.57;;
23310;SDS011;11828;51.508;18.118;2023-02-01T01:06:09;207.30;;;86.60;;
23310;SDS011;11828;51.508;18.118;2023-02-01T01:08:41;194.90;;;72.28;;
23310;SDS011;11828;51.508;18.118;2023-02-01T01:11:09;208.77;;;73.40;;
23310;SDS011;11828;51.508;18.118;2023-02-01T01:13:41;201.95;;;73.13;;
23310;SDS011;11828;51.508;18.118;2023-02-01T01:16:08;199.07;;;75.63;;
23310;SDS011;11828;51.508;18.118;2023-02-01T01:18:36;194.68;;;68.72;;
23310;SDS011;11828;51.508;18.118;2023-02-01T01:21:06;199.82;;;71.38;;
23310;SDS011;11828;51.508;18.118;2023-02-01T01:23:35;215.65;;;73.78;;
23310;SDS011;11828;51.508;18.118;2023-02-01T01:26:04;199.63;;;70.70;;
23310;SDS011;11828;51.508;18.118;2023-02-01T01:28:32;197.35;;;70.88;;
23310;SDS011;11828;51.508;18.118;2023-02-01T01:30:58;203.73;;;71.00;;
23310;SDS011;11828;51.508;18.118;2023-02-01T01:33:24;198.05;;;70.35;;
23310;SDS011;11828;51.508;18.118;2023-02-01T01:35:50;201.32;;;72.50;;
23310;SDS011;11828;51.508;18.118;2023-02-01T01:38:16;200.55;;;72.13;;
23310;SDS011;11828;51.508;18.118;2023-02-01T01:40:46;196.88;;;71.85;;
23310;SDS011;11828;51.508;18.118;2023-02-01T01:43:15;193.00;;;69.80;;
23310;SDS011;11828;51.508;18.118;2023-02-01T01:45:45;197.48;;;71.70;;
23310;SDS011;11828;51.508;18.118;2023-02-01T01:48:13;202.60;;;73.55;;
23310;SDS011;11828;51.508;18.118;2023-02-01T01:50:57;198.63;;;71.30;;
23310;SDS011;11828;51.508;18.118;2023-02-01T01:53:33;194.52;;;71.60;;
23310;SDS011;11828;51.508;18.118;2023-02-01T01:56:04;201.23;;;71.68;;
23310;SDS011;11828;51.508;18.118;2023-02-01T01:58:30;218.07;;;76.25;;
23310;SDS011;11828;51.508;18.118;2023-02-01T02:00:58;194.35;;;70.85;;
23310;SDS011;11828;51.508;18.118;2023-02-01T02:03:28;209.52;;;71.82;;
23310;SDS011;11828;51.508;18.118;2023-02-01T02:06:02;196.40;;;71.50;;
23310;SDS011;11828;51.508;18.118;2023-02-01T02:08:29;197.07;;;71.35;;
23310;SDS011;11828;51.508;18.118;2023-02-01T02:10:56;195.55;;;71.32;;
23310;SDS011;11828;51.508;18.118;2023-02-01T02:13:25;197.82;;;72.90;;
23310;SDS011;11828;51.508;18.118;2023-02-01T02:16:12;213.45;;;73.82;;
23310;SDS011;11828;51.508;18.118;2023-02-01T02:19:14;199.50;;;70.70;;
23310;SDS011;11828;51.508;18.118;2023-02-01T02:24:58;197.88;;;70.78;;
23310;SDS011;11828;51.508;18.118;2023-02-01T02:30:36;197.18;;;71.82;;
23310;SDS011;11828;51.508;18.118;2023-02-01T02:39:42;195.48;;;69.78;;
23310;SDS011;11828;51.508;18.118;2023-02-01T02:46:36;198.77;;;71.05;;
23310;SDS011;11828;51.508;18.118;2023-02-01T02:49:36;196.95;;;68.97;;
23310;SDS011;11828;51.508;18.118;2023-02-01T02:52:57;193.15;;;70.35;;
23310;SDS011;11828;51.508;18.118;2023-02-01T02:56:16;192.35;;;68.88;;
23310;SDS011;11828;51.508;18.118;2023-02-01T02:59:05;195.02;;;69.22;;
23310;SDS011;11828;51.508;18.118;2023-02-01T03:01:53;200.90;;;70.10;;
23310;SDS011;11828;51.508;18.118;2023-02-01T03:04:38;194.48;;;70.28;;
23310;SDS011;11828;51.508;18.118;2023-02-01T03:07:13;199.20;;;70.05;;
23310;SDS011;11828;51.508;18.118;2023-02-01T03:13:11;198.60;;;72.60;;
23310;SDS011;11828;51.508;18.118;2023-02-01T03:16:15;200.40;;;71.68;;
23310;SDS011;11828;51.508;18.118;2023-02-01T03:21:48;193.98;;;70.40;;
23310;SDS011;11828;51.508;18.118;2023-02-01T03:24:25;199.57;;;70.85;;
23310;SDS011;11828;51.508;18.118;2023-02-01T03:27:06;197.02;;;70.57;;
23310;SDS011;11828;51.508;18.118;2023-02-01T03:30:17;201.00;;;70.18;;
23310;SDS011;11828;51.508;18.118;2023-02-01T03:32:48;194.43;;;68.57;;
23310;SDS011;11828;51.508;18.118;2023-02-01T03:35:29;195.98;;;71.18;;
23310;SDS011;11828;51.508;18.118;2023-02-01T03:38:42;193.65;;;69.68;;
23310;SDS011;11828;51.508;18.118;2023-02-01T03:46:43;198.10;;;70.82;;
23310;SDS011;11828;51.508;18.118;2023-02-01T03:49:21;197.45;;;72.07;;
23310;SDS011;11828;51.508;18.118;2023-02-01T03:51:54;198.07;;;70.97;;
23310;SDS011;11828;51.508;18.118;2023-02-01T03:54:23;195.43;;;70.65;;
23310;SDS011;11828;51.508;18.118;2023-02-01T03:56:54;196.55;;;71.00;;
23310;SDS011;11828;51.508;18.118;2023-02-01T03:59:23;199.57;;;72.00;;
23310;SDS011;11828;51.508;18.118;2023-02-01T04:01:49;199.13;;;70.88;;
23310;SDS011;11828;51.508;18.118;2023-02-01T04:04:16;205.70;;;71.95;;
23310;SDS011;11828;51.508;18.118;2023-02-01T04:06:46;200.38;;;71.13;;
23310;SDS011;11828;51.508;18.118;2023-02-01T04:09:13;202.75;;;71.18;;
23310;SDS011;11828;51.508;18.118;2023-02-01T04:11:39;196.70;;;68.03;;
23310;SDS011;11828;51.508;18.118;2023-02-01T04:14:06;196.32;;;70.45;;
23310;SDS011;11828;51.508;18.118;2023-02-01T04:16:32;201.80;;;71.40;;
23310;SDS011;11828;51.508;18.118;2023-02-01T04:18:58;202.85;;;69.30;;
23310;SDS011;11828;51.508;18.118;2023-02-01T04:21:25;201.00;;;69.35;;
23310;SDS011;11828;51.508;18.118;2023-02-01T04:23:52;198.60;;;70.22;;
23310;SDS011;11828;51.508;18.118;2023-02-01T04:26:19;202.07;;;70.25;;
23310;SDS011;11828;51.508;18.118;2023-02-01T04:28:46;200.77;;;72.78;;
23310;SDS011;11828;51.508;18.118;2023-02-01T04:31:13;203.88;;;72.38;;
23310;SDS011;11828;51.508;18.118;2023-02-01T04:33:41;199.18;;;71.57;;
23310;SDS011;11828;51.508;18.118;2023-02-01T04:36:07;204.48;;;71.93;;
23310;SDS011;11828;51.508;18.118;2023-02-01T04:38:33;196.63;;;71.28;;
23310;SDS011;11828;51.508;18.118;2023-02-01T04:41:00;205.95;;;74.15;;
23310;SDS011;11828;51.508;18.118;2023-02-01T04:43:26;204.63;;;71.38;;
23310;SDS011;11828;51.508;18.118;2023-02-01T04:45:52;201.50;;;70.97;;
23310;SDS011;11828;51.508;18.118;2023-02-01T04:48:19;194.95;;;69.63;;
23310;SDS011;11828;51.508;18.118;2023-02-01T04:50:46;191.55;;;69.50;;
23310;SDS011;11828;51.508;18.118;2023-02-01T04:53:14;197.32;;;69.78;;
23310;SDS011;11828;51.508;18.118;2023-02-01T04:55:41;197.13;;;70.93;;
23310;SDS011;11828;51.508;18.118;2023-02-01T04:58:08;201.77;;;71.18;;
23310;SDS011;11828;51.508;18.118;2023-02-01T05:00:35;191.20;;;69.28;;
23310;SDS011;11828;51.508;18.118;2023-02-01T05:03:03;203.57;;;72.07;;
23310;SDS011;11828;51.508;18.118;2023-02-01T05:05:29;192.52;;;70.90;;
23310;SDS011;11828;51.508;18.118;2023-02-01T05:07:55;198.73;;;71.35;;
23310;SDS011;11828;51.508;18.118;2023-02-01T05:10:22;204.10;;;71.32;;
23310;SDS011;11828;51.508;18.118;2023-02-01T05:12:48;197.05;;;70.38;;
23310;SDS011;11828;51.508;18.118;2023-02-01T05:15:37;203.50;;;71.97;;
23310;SDS011;11828;51.508;18.118;2023-02-01T05:18:03;195.57;;;70.03;;
23310;SDS011;11828;51.508;18.118;2023-02-01T05:20:30;197.10;;;71.00;;
23310;SDS011;11828;51.508;18.118;2023-02-01T05:22:56;225.27;;;75.68;;
23310;SDS011;11828;51.508;18.118;2023-02-01T05:25:23;212.60;;;73.85;;
23310;SDS011;11828;51.508;18.118;2023-02-01T05:27:48;207.77;;;73.43;;
23310;SDS011;11828;51.508;18.118;2023-02-01T05:30:15;209.40;;;72.68;;
23310;SDS011;11828;51.508;18.118;2023-02-01T05:32:42;209.95;;;73.20;;
23310;SDS011;11828;51.508;18.118;2023-02-01T05:35:08;221.43;;;73.72;;
23310;SDS011;11828;51.508;18.118;2023-02-01T05:37:34;201.75;;;70.88;;
23310;SDS011;11828;51.508;18.118;2023-02-01T05:40:01;202.40;;;72.20;;
23310;SDS011;11828;51.508;18.118;2023-02-01T05:42:27;204.40;;;71.57;;
23310;SDS011;11828;51.508;18.118;2023-02-01T05:44:53;201.02;;;70.47;;
23310;SDS011;11828;51.508;18.118;2023-02-01T05:47:19;200.35;;;70.65;;
23310;SDS011;11828;51.508;18.118;2023-02-01T05:49:46;224.68;;;75.45;;
23310;SDS011;11828;51.508;18.118;2023-02-01T05:52:12;250.25;;;84.82;;
23310;SDS011;11828;51.508;18.118;2023-02-01T05:54:38;322.67;;;98.75;;
23310;SDS011;11828;51.508;18.118;2023-02-01T05:57:04;279.50;;;89.00;;
23310;SDS011;11828;51.508;18.118;2023-02-01T05:59:31;214.90;;;74.40;;
23310;SDS011;11828;51.508;18.118;2023-02-01T06:01:57;216.43;;;74.25;;
23310;SDS011;11828;51.508;18.118;2023-02-01T06:04:23;208.45;;;72.40;;
23310;SDS011;11828;51.508;18.118;2023-02-01T06:06:49;206.73;;;75.07;;
23310;SDS011;11828;51.508;18.118;2023-02-01T06:09:16;217.65;;;74.15;;
23310;SDS011;11828;51.508;18.118;2023-02-01T06:11:42;207.18;;;72.78;;
23310;SDS011;11828;51.508;18.118;2023-02-01T06:14:08;210.48;;;73.40;;
23310;SDS011;11828;51.508;18.118;2023-02-01T06:16:34;225.88;;;76.35;;
23310;SDS011;11828;51.508;18.118;2023-02-01T06:19:01;215.93;;;75.60;;
23310;SDS011;11828;51.508;18.118;2023-02-01T06:21:27;211.20;;;72.50;;
23310;SDS011;11828;51.508;18.118;2023-02-01T06:23:53;210.25;;;72.72;;
23310;SDS011;11828;51.508;18.118;2023-02-01T06:26:19;225.20;;;74.40;;
23310;SDS011;11828;51.508;18.118;2023-02-01T06:28:46;217.98;;;74.13;;
23310;SDS011;11828;51.508;18.118;2023-02-01T06:31:12;229.50;;;77.28;;
23310;SDS011;11828;51.508;18.118;2023-02-01T06:33:39;212.77;;;74.60;;
23310;SDS011;11828;51.508;18.118;2023-02-01T06:36:06;204.75;;;72.95;;
23310;SDS011;11828;51.508;18.118;2023-02-01T06:38:35;212.43;;;73.00;;
23310;SDS011;11828;51.508;18.118;2023-02-01T06:41:02;218.85;;;73.95;;
23310;SDS011;11828;51.508;18.118;2023-02-01T06:43:29;212.77;;;71.43;;
23310;SDS011;11828;51.508;18.118;2023-02-01T06:45:59;212.05;;;73.70;;
23310;SDS011;11828;51.508;18.118;2023-02-01T06:48:33;215.00;;;74.38;;
23310;SDS011;11828;51.508;18.118;2023-02-01T06:50:59;210.95;;;71.40;;
23310;SDS011;11828;51.508;18.118;2023-02-01T06:53:26;221.13;;;74.68;;
23310;SDS011;11828;51.508;18.118;2023-02-01T06:55:53;210.90;;;72.05;;
23310;SDS011;11828;51.508;18.118;2023-02-01T06:58:31;214.07;;;74.03;;
23310;SDS011;11828;51.508;18.118;2023-02-01T07:00:58;214.27;;;73.07;;
23310;SDS011;11828;51.508;18.118;2023-02-01T07:03:31;201.45;;;72.40;;
23310;SDS011;11828;51.508;18.118;2023-02-01T07:05:58;217.23;;;74.72;;
23310;SDS011;11828;51.508;18.118;2023-02-01T07:08:24;223.52;;;75.97;;
23310;SDS011;11828;51.508;18.118;2023-02-01T07:10:53;216.77;;;75.05;;
23310;SDS011;11828;51.508;18.118;2023-02-01T07:13:20;219.82;;;74.72;;
23310;SDS011;11828;51.508;18.118;2023-02-01T07:15:46;210.07;;;71.97;;
23310;SDS011;11828;51.508;18.118;2023-02-01T07:18:13;218.65;;;71.75;;
23310;SDS011;11828;51.508;18.118;2023-02-01T07:20:40;205.82;;;70.65;;
23310;SDS011;11828;51.508;18.118;2023-02-01T07:23:10;220.77;;;73.25;;
23310;SDS011;11828;51.508;18.118;2023-02-01T07:25:36;227.07;;;78.28;;
23310;SDS011;11828;51.508;18.118;2023-02-01T07:28:03;248.85;;;82.57;;
23310;SDS011;11828;51.508;18.118;2023-02-01T07:30:28;232.07;;;76.72;;
23310;SDS011;11828;51.508;18.118;2023-02-01T07:32:55;266.85;;;82.82;;
23310;SDS011;11828;51.508;18.118;2023-02-01T07:35:24;218.57;;;76.93;;
23310;SDS011;11828;51.508;18.118;2023-02-01T07:37:51;225.25;;;81.40;;
23310;SDS011;11828;51.508;18.118;2023-02-01T07:40:17;221.18;;;76.70;;
23310;SDS011;11828;51.508;18.118;2023-02-01T07:42:43;222.43;;;75.40;;
23310;SDS011;11828;51.508;18.118;2023-02-01T07:45:09;225.55;;;77.07;;
23310;SDS011;11828;51.508;18.118;2023-02-01T07:47:38;233.68;;;77.78;;
23310;SDS011;11828;51.508;18.118;2023-02-01T07:50:04;224.40;;;86.60;;
23310;SDS011;11828;51.508;18.118;2023-02-01T07:52:31;227.38;;;80.13;;
23310;SDS011;11828;51.508;18.118;2023-02-01T07:54:57;225.23;;;76.47;;
23310;SDS011;11828;51.508;18.118;2023-02-01T07:57:23;244.75;;;83.15;;
23310;SDS011;11828;51.508;18.118;2023-02-01T07:59:49;226.05;;;78.88;;
23310;SDS011;11828;51.508;18.118;2023-02-01T08:02:34;228.93;;;79.22;;
23310;SDS011;11828;51.508;18.118;2023-02-01T08:04:59;230.07;;;79.78;;
23310;SDS011;11828;51.508;18.118;2023-02-01T08:07:26;230.15;;;79.00;;
23310;SDS011;11828;51.508;18.118;2023-02-01T08:09:54;223.50;;;78.32;;
23310;SDS011;11828;51.508;18.118;2023-02-01T08:12:20;220.52;;;78.72;;
23310;SDS011;11828;51.508;18.118;2023-02-01T08:14:47;216.10;;;75.72;;
23310;SDS011;11828;51.508;18.118;2023-02-01T08:17:13;223.88;;;92.68;;
23310;SDS011;11828;51.508;18.118;2023-02-01T08:19:39;215.48;;;79.10;;
23310;SDS011;11828;51.508;18.118;2023-02-01T08:22:05;227.65;;;91.45;;
23310;SDS011;11828;51.508;18.118;2023-02-01T08:24:32;223.75;;;77.45;;
23310;SDS011;11828;51.508;18.118;2023-02-01T08:27:00;220.50;;;85.47;;
23310;SDS011;11828;51.508;18.118;2023-02-01T08:29:27;216.68;;;76.85;;
23310;SDS011;11828;51.508;18.118;2023-02-01T08:31:54;233.18;;;80.53;;
23310;SDS011;11828;51.508;18.118;2023-02-01T08:34:20;218.25;;;77.45;;
23310;SDS011;11828;51.508;18.118;2023-02-01T08:36:46;230.20;;;77.20;;
23310;SDS011;11828;51.508;18.118;2023-02-01T08:39:12;238.02;;;79.63;;
23310;SDS011;11828;51.508;18.118;2023-02-01T08:41:39;235.80;;;77.80;;
23310;SDS011;11828;51.508;18.118;2023-02-01T08:44:07;225.77;;;95.45;;
23310;SDS011;11828;51.508;18.118;2023-02-01T08:46:33;260.70;;;80.72;;
23310;SDS011;11828;51.508;18.118;2023-02-01T08:48:59;220.10;;;76.93;;
23310;SDS011;11828;51.508;18.118;2023-02-01T08:51:25;212.25;;;78.90;;
23310;SDS011;11828;51.508;18.118;2023-02-01T08:53:51;223.57;;;78.50;;
23310;SDS011;11828;51.508;18.118;2023-02-01T08:56:18;224.80;;;85.05;;
23310;SDS011;11828;51.508;18.118;2023-02-01T08:58:46;214.23;;;78.10;;
23310;SDS011;11828;51.508;18.118;2023-02-01T09:01:13;212.48;;;76.05;;
23310;SDS011;11828;51.508;18.118;2023-02-01T09:03:41;228.90;;;90.25;;
23310;SDS011;11828;51.508;18.118;2023-02-01T09:06:09;234.20;;;97.68;;
23310;SDS011;11828;51.508;18.118;2023-02-01T09:08:38;218.20;;;84.38;;
23310;SDS011;11828;51.508;18.118;2023-02-01T09:11:11;221.55;;;87.50;;
23310;SDS011;11828;51.508;18.118;2023-02-01T09:13:40;216.45;;;81.25;;
23310;SDS011;11828;51.508;18.118;2023-02-01T09:16:07;209.40;;;78.30;;
23310;SDS011;11828;51.508;18.118;2023-02-01T09:18:34;224.90;;;77.72;;
23310;SDS011;11828;51.508;18.118;2023-02-01T09:21:04;221.07;;;78.78;;
23310;SDS011;11828;51.508;18.118;2023-02-01T09:23:31;227.45;;;82.32;;
23310;SDS011;11828;51.508;18.118;2023-02-01T09:25:59;223.32;;;83.10;;
23310;SDS011;11828;51.508;18.118;2023-02-01T09:28:26;222.30;;;78.20;;
23310;SDS011;11828;51.508;18.118;2023-02-01T09:30:56;213.27;;;79.38;;
23310;SDS011;11828;51.508;18.118;2023-02-01T09:33:24;221.40;;;81.20;;
23310;SDS011;11828;51.508;18.118;2023-02-01T09:35:55;215.60;;;78.13;;
23310;SDS011;11828;51.508;18.118;2023-02-01T09:38:27;211.25;;;78.80;;
23310;SDS011;11828;51.508;18.118;2023-02-01T09:40:54;210.57;;;77.07;;
23310;SDS011;11828;51.508;18.118;2023-02-01T09:43:24;229.63;;;79.55;;
23310;SDS011;11828;51.508;18.118;2023-02-01T09:46:26;211.07;;;77.40;;
23310;SDS011;11828;51.508;18.118;2023-02-01T09:48:56;210.52;;;78.72;;
23310;SDS011;11828;51.508;18.118;2023-02-01T09:51:29;222.93;;;79.53;;
23310;SDS011;11828;51.508;18.118;2023-02-01T09:54:04;221.00;;;76.97;;
23310;SDS011;11828;51.508;18.118;2023-02-01T09:59:40;207.35;;;75.13;;
23310;SDS011;11828;51.508;18.118;2023-02-01T10:02:14;201.90;;;77.88;;
23310;SDS011;11828;51.508;18.118;2023-02-01T10:04:48;205.40;;;74.32;;
23310;SDS011;11828;51.508;18.118;2023-02-01T10:07:24;236.20;;;116.30;;
23310;SDS011;11828;51.508;18.118;2023-02-01T10:10:14;201.27;;;77.15;;
23310;SDS011;11828;51.508;18.118;2023-02-01T10:27:02;227.52;;;88.28;;
23310;SDS011;11828;51.508;18.118;2023-02-01T10:30:01;217.27;;;88.00;;
23310;SDS011;11828;51.508;18.118;2023-02-01T10:32:44;236.13;;;83.25;;
23310;SDS011;11828;51.508;18.118;2023-02-01T10:35:18;236.40;;;86.50;;
23310;SDS011;11828;51.508;18.118;2023-02-01T10:37:51;226.90;;;81.43;;
23310;SDS011;11828;51.508;18.118;2023-02-01T10:40:22;230.75;;;84.40;;
23310;SDS011;11828;51.508;18.118;2023-02-01T10:42:54;221.25;;;77.57;;
23310;SDS011;11828;51.508;18.118;2023-02-01T10:45:28;240.07;;;84.43;;
23310;SDS011;11828;51.508;18.118;2023-02-01T10:47:57;222.20;;;78.50;;
23310;SDS011;11828;51.508;18.118;2023-02-01T10:55:52;232.15;;;79.53;;
23310;SDS011;11828;51.508;18.118;2023-02-01T11:00:48;217.15;;;77.57;;
23310;SDS011;11828;51.508;18.118;2023-02-01T11:06:04;223.43;;;90.80;;
23310;SDS011;11828;51.508;18.118;2023-02-01T11:14:26;228.68;;;89.60;;
23310;SDS011;11828;51.508;18.118;2023-02-01T11:17:02;216.52;;;81.65;;
23310;SDS011;11828;51.508;18.118;2023-02-01T11:19:56;210.00;;;80.72;;
23310;SDS011;11828;51.508;18.118;2023-02-01T11:22:25;232.52;;;83.05;;
23310;SDS011;11828;51.508;18.118;2023-02-01T11:24:54;243.48;;;87.03;;
23310;SDS011;11828;51.508;18.118;2023-02-01T11:27:23;225.00;;;83.78;;
23310;SDS011;11828;51.508;18.118;2023-02-01T11:29:51;226.57;;;88.18;;
23310;SDS011;11828;51.508;18.118;2023-02-01T11:32:23;218.75;;;79.65;;
23310;SDS011;11828;51.508;18.118;2023-02-01T11:34:54;234.40;;;88.57;;
23310;SDS011;11828;51.508;18.118;2023-02-01T11:42:52;225.70;;;78.75;;
23310;SDS011;11828;51.508;18.118;2023-02-01T11:45:32;224.52;;;78.65;;
23310;SDS011;11828;51.508;18.118;2023-02-01T11:48:00;215.70;;;76.00;;
23310;SDS011;11828;51.508;18.118;2023-02-01T11:50:34;219.73;;;75.53;;
23310;SDS011;11828;51.508;18.118;2023-02-01T12:19:31;201.90;;;73.50;;
23310;SDS011;11828;51.508;18.118;2023-02-01T12:31:21;218.68;;;79.60;;
23310;SDS011;11828;51.508;18.118;2023-02-01T12:43:07;215.80;;;89.30;;
23310;SDS011;11828;51.508;18.118;2023-02-01T12:45:43;213.60;;;80.63;;
23310;SDS011;11828;51.508;18.118;2023-02-01T12:48:27;213.73;;;74.78;;
23310;SDS011;11828;51.508;18.118;2023-02-01T12:51:04;223.43;;;97.78;;
23310;SDS011;11828;51.508;18.118;2023-02-01T12:53:51;206.57;;;76.90;;
23310;SDS011;11828;51.508;18.118;2023-02-01T13:02:18;215.50;;;84.68;;
23310;SDS011;11828;51.508;18.118;2023-02-01T13:05:05;216.82;;;82.70;;
23310;SDS011;11828;51.508;18.118;2023-02-01T13:07:58;206.65;;;82.75;;
23310;SDS011;11828;51.508;18.118;2023-02-01T13:10:34;218.77;;;83.25;;
23310;SDS011;11828;51.508;18.118;2023-02-01T13:16:06;230.50;;;103.18;;
23310;SDS011;11828;51.508;18.118;2023-02-01T13:19:02;211.50;;;76.40;;
23310;SDS011;11828;51.508;18.118;2023-02-01T13:21:51;204.82;;;75.05;;
23310;SDS011;11828;51.508;18.118;2023-02-01T13:27:03;215.55;;;75.85;;
23310;SDS011;11828;51.508;18.118;2023-02-01T13:29:30;203.63;;;73.82;;
23310;SDS011;11828;51.508;18.118;2023-02-01T13:32:02;204.60;;;74.80;;
23310;SDS011;11828;51.508;18.118;2023-02-01T13:40:40;218.80;;;77.82;;
23310;SDS011;11828;51.508;18.118;2023-02-01T13:43:32;213.93;;;91.05;;
23310;SDS011;11828;51.508;18.118;2023-02-01T13:46:04;203.95;;;77.35;;
23310;SDS011;11828;51.508;18.118;2023-02-01T13:48:45;204.18;;;77.38;;
23310;SDS011;11828;51.508;18.118;2023-02-01T13:51:31;198.07;;;74.38;;
23310;SDS011;11828;51.508;18.118;2023-02-01T13:54:01;215.23;;;87.18;;
23310;SDS011;11828;51.508;18.118;2023-02-01T13:56:38;207.52;;;75.82;;
23310;SDS011;11828;51.508;18.118;2023-02-01T14:10:54;212.52;;;75.18;;
23310;SDS011;11828;51.508;18.118;2023-02-01T14:13:35;204.23;;;79.68;;
23310;SDS011;11828;51.508;18.118;2023-02-01T14:23:41;213.15;;;83.47;;
23310;SDS011;11828;51.508;18.118;2023-02-01T14:26:11;241.63;;;81.20;;
23310;SDS011;11828;51.508;18.118;2023-02-01T14:29:41;221.85;;;80.43;;
23310;SDS011;11828;51.508;18.118;2023-02-01T14:42:20;218.45;;;89.50;;
23310;SDS011;11828;51.508;18.118;2023-02-01T14:44:56;215.23;;;77.35;;
23310;SDS011;11828;51.508;18.118;2023-02-01T14:50:47;206.73;;;78.57;;
23310;SDS011;11828;51.508;18.118;2023-02-01T14:53:22;205.38;;;79.32;;
23310;SDS011;11828;51.508;18.118;2023-02-01T14:58:38;205.55;;;75.55;;
23310;SDS011;11828;51.508;18.118;2023-02-01T15:01:26;217.10;;;82.28;;
23310;SDS011;11828;51.508;18.118;2023-02-01T15:04:15;212.38;;;89.60;;
23310;SDS011;11828;51.508;18.118;2023-02-01T15:15:03;201.65;;;80.05;;
23310;SDS011;11828;51.508;18.118;2023-02-01T15:17:56;209.60;;;78.15;;
23310;SDS011;11828;51.508;18.118;2023-02-01T15:22:58;208.15;;;79.97;;
23310;SDS011;11828;51.508;18.118;2023-02-01T15:25:30;202.80;;;75.80;;
23310;SDS011;11828;51.508;18.118;2023-02-01T15:28:01;206.85;;;79.07;;
23310;SDS011;11828;51.508;18.118;2023-02-01T15:30:29;205.30;;;82.63;;
23310;SDS011;11828;51.508;18.118;2023-02-01T15:35:42;213.20;;;79.60;;
23310;SDS011;11828;51.508;18.118;2023-02-01T15:44:31;208.40;;;79.93;;
23310;SDS011;11828;51.508;18.118;2023-02-01T15:46:53;203.23;;;78.75;;
23310;SDS011;11828;51.508;18.118;2023-02-01T15:49:23;213.57;;;80.63;;
23310;SDS011;11828;51.508;18.118;2023-02-01T15:52:01;226.70;;;85.75;;
23310;SDS011;11828;51.508;18.118;2023-02-01T15:54:35;223.98;;;84.32;;
23310;SDS011;11828;51.508;18.118;2023-02-01T15:57:22;222.00;;;84.07;;
23310;SDS011;11828;51.508;18.118;2023-02-01T16:00:17;200.40;;;78.30;;
23310;SDS011;11828;51.508;18.118;2023-02-01T16:02:51;208.23;;;78.35;;
23310;SDS011;11828;51.508;18.118;2023-02-01T16:05:36;206.23;;;82.05;;
23310;SDS011;11828;51.508;18.118;2023-02-01T16:10:48;213.48;;;86.68;;
23310;SDS011;11828;51.508;18.118;2023-02-01T16:13:17;212.02;;;80.55;;
23310;SDS011;11828;51.508;18.118;2023-02-01T16:15:46;228.48;;;90.30;;
23310;SDS011;11828;51.508;18.118;2023-02-01T16:18:13;229.85;;;84.45;;
23310;SDS011;11828;51.508;18.118;2023-02-01T16:20:41;234.38;;;85.15;;
23310;SDS011;11828;51.508;18.118;2023-02-01T16:23:08;212.65;;;76.05;;
23310;SDS011;11828;51.508;18.118;2023-02-01T16:25:36;214.45;;;77.63;;
23310;SDS011;11828;51.508;18.118;2023-02-01T16:28:03;210.52;;;82.22;;
23310;SDS011;11828;51.508;18.118;2023-02-01T16:30:33;216.57;;;81.05;;
23310;SDS011;11828;51.508;18.118;2023-02-01T16:33:01;215.90;;;75.65;;
23310;SDS011;11828;51.508;18.118;2023-02-01T16:35:28;206.68;;;75.80;;
23310;SDS011;11828;51.508;18.118;2023-02-01T16:38:03;216.35;;;81.45;;
23310;SDS011;11828;51.508;18.118;2023-02-01T16:40:41;225.55;;;81.30;;
23310;SDS011;11828;51.508;18.118;2023-02-01T16:43:12;222.48;;;78.72;;
23310;SDS011;11828;51.508;18.118;2023-02-01T16:45:45;213.18;;;79.25;;
23310;SDS011;11828;51.508;18.118;2023-02-01T16:48:22;237.55;;;107.18;;
23310;SDS011;11828;51.508;18.118;2023-02-01T16:51:07;215.65;;;82.45;;
23310;SDS011;11828;51.508;18.118;2023-02-01T16:53:36;220.73;;;83.28;;
23310;SDS011;11828;51.508;18.118;2023-02-01T16:56:12;215.02;;;82.82;;
23310;SDS011;11828;51.508;18.118;2023-02-01T16:58:41;225.70;;;82.82;;
23310;SDS011;11828;51.508;18.118;2023-02-01T17:01:09;223.48;;;85.65;;
23310;SDS011;11828;51.508;18.118;2023-02-01T17:03:37;214.60;;;78.05;;
23310;SDS011;11828;51.508;18.118;2023-02-01T17:06:04;236.38;;;100.03;;
23310;SDS011;11828;51.508;18.118;2023-02-01T17:08:37;217.57;;;78.70;;
23310;SDS011;11828;51.508;18.118;2023-02-01T17:11:07;233.70;;;93.65;;
23310;SDS011;11828;51.508;18.118;2023-02-01T17:13:38;216.52;;;79.38;;
23310;SDS011;11828;51.508;18.118;2023-02-01T17:18:57;214.07;;;77.50;;
23310;SDS011;11828;51.508;18.118;2023-02-01T17:21:30;222.07;;;78.25;;
23310;SDS011;11828;51.508;18.118;2023-02-01T17:24:13;227.60;;;77.88;;
23310;SDS011;11828;51.508;18.118;2023-02-01T17:26:40;223.52;;;79.15;;
23310;SDS011;11828;51.508;18.118;2023-02-01T17:29:07;228.27;;;99.15;;
23310;SDS011;11828;51.508;18.118;2023-02-01T17:31:36;221.50;;;87.65;;
23310;SDS011;11828;51.508;18.118;2023-02-01T17:34:08;212.55;;;76.13;;